Time;durP1;ratioP1;P1;durP2;ratioP2;P2;SDS_P1;SDS_P2;PMS_P1;PMS_P2;Temp;Humidity;BMP_temperature;BMP_pressure;BME280_temperature;BME280_humidity;BME280_pressure;Samples;Min_cycle;Max_cycle;Signal;HPM_P1;HPM_P2
2021/12/12 00:00:20;;;;;;;34.35;7.68;;;6.20;99.90;;;;;;5055261;28;20033;-72
2021/12/12 00:03:01;;;;;;;33.67;7.25;;;6.20;99.90;;;;;;5056000;28;20044;-73
2021/12/12 00:05:49;;;;;;;28.67;7.65;;;6.30;99.90;;;;;;5055992;28;20089;-73
2021/12/12 00:08:17;;;;;;;17.52;6.43;;;6.30;99.90;;;;;;5060102;28;20021;-73
2021/12/12 00:10:49;;;;;;;22.95;6.68;;;6.30;99.90;;;;;;5076102;28;20033;-72
2021/12/12 00:13:24;;;;;;;29.30;8.05;;;6.30;99.90;;;;;;5074443;28;20031;-73
2021/12/12 00:15:49;;;;;;;28.98;8.63;;;6.20;99.90;;;;;;5075972;28;20484;-72
2021/12/12 00:18:16;;;;;;;26.98;7.45;;;6.20;99.90;;;;;;5076166;28;20056;-72
2021/12/12 00:20:43;;;;;;;26.50;6.85;;;6.30;99.90;;;;;;5075462;28;20082;-73
2021/12/12 00:23:10;;;;;;;23.10;6.63;;;6.30;99.90;;;;;;5074637;28;20378;-73
2021/12/12 00:25:39;;;;;;;25.42;7.22;;;6.30;99.90;;;;;;5074460;28;20021;-73
2021/12/12 00:28:06;;;;;;;26.05;7.20;;;6.30;99.90;;;;;;5074274;28;20366;-72
2021/12/12 00:30:32;;;;;;;27.52;6.82;;;6.40;99.90;;;;;;5075722;28;20036;-72
2021/12/12 00:32:59;;;;;;;22.50;7.13;;;6.40;99.90;;;;;;5074720;28;20032;-73
2021/12/12 00:35:25;;;;;;;24.00;7.20;;;6.40;99.90;;;;;;5075619;28;20021;-73
2021/12/12 00:37:57;;;;;;;21.52;6.60;;;6.40;99.90;;;;;;5075624;28;20032;-73
2021/12/12 00:40:33;;;;;;;28.23;6.53;;;6.40;99.90;;;;;;5075567;28;20427;-72
2021/12/12 00:43:01;;;;;;;24.30;7.60;;;6.40;99.90;;;;;;5075321;28;20044;-73
2021/12/12 00:45:29;;;;;;;30.48;8.15;;;6.30;99.90;;;;;;5075420;28;20040;-73
2021/12/12 00:47:56;;;;;;;35.30;7.05;;;6.30;99.90;;;;;;5074321;28;20111;-73
2021/12/12 00:50:42;;;;;;;31.10;6.72;;;6.30;99.90;;;;;;5075855;28;20035;-73
2021/12/12 00:53:10;;;;;;;24.70;6.60;;;6.30;99.90;;;;;;5075435;28;20059;-72
2021/12/12 00:55:38;;;;;;;22.35;6.88;;;6.30;99.90;;;;;;5075441;28;20123;-73
2021/12/12 00:58:13;;;;;;;32.28;7.18;;;6.40;99.90;;;;;;5074901;28;20385;-72
2021/12/12 01:00:50;;;;;;;25.27;6.50;;;6.40;99.90;;;;;;5075000;28;20079;-72
2021/12/12 01:03:22;;;;;;;27.73;7.32;;;6.40;99.90;;;;;;5074205;28;20381;-72
2021/12/12 01:05:50;;;;;;;30.10;6.93;;;6.40;99.90;;;;;;5075214;28;20024;-72
2021/12/12 01:08:16;;;;;;;30.85;6.68;;;6.40;99.90;;;;;;5052687;28;20067;-72
2021/12/12 01:10:48;;;;;;;44.95;7.85;;;6.30;99.90;;;;;;5054924;28;20037;-73
2021/12/12 01:13:14;;;;;;;34.00;8.38;;;6.30;99.90;;;;;;5054468;28;20064;-73
2021/12/12 01:15:51;;;;;;;27.27;7.32;;;6.30;99.90;;;;;;5055101;28;20021;-72
2021/12/12 01:18:29;;;;;;;22.17;7.35;;;6.40;99.90;;;;;;5053686;28;20024;-72
2021/12/12 01:21:02;;;;;;;28.58;6.43;;;6.40;99.90;;;;;;5053495;28;20459;-73
2021/12/12 01:23:32;;;;;;;26.08;7.68;;;6.40;99.90;;;;;;5054775;28;20033;-72
2021/12/12 01:25:59;;;;;;;30.38;8.35;;;6.40;99.90;;;;;;5063816;28;20021;-73
2021/12/12 01:28:29;;;;;;;31.50;8.38;;;6.40;99.90;;;;;;5074619;28;20115;-73
2021/12/12 01:30:58;;;;;;;19.98;6.65;;;6.40;99.90;;;;;;5074785;28;20040;-73
2021/12/12 01:33:35;;;;;;;30.25;7.47;;;6.40;99.90;;;;;;5074585;28;20166;-73
2021/12/12 01:36:12;;;;;;;37.00;9.23;;;6.40;99.90;;;;;;5073428;28;20394;-73
2021/12/12 01:38:55;;;;;;;32.78;8.48;;;6.40;99.90;;;;;;5074716;28;20048;-73
2021/12/12 01:41:26;;;;;;;33.38;7.72;;;6.40;99.90;;;;;;5074210;28;20032;-72
2021/12/12 01:43:57;;;;;;;31.48;8.77;;;6.30;99.90;;;;;;5073276;28;20029;-72
2021/12/12 01:46:29;;;;;;;27.42;8.05;;;6.40;99.90;;;;;;5074479;28;20400;-73
2021/12/12 01:49:08;;;;;;;31.77;8.43;;;6.30;99.90;;;;;;5072541;28;20469;-72
2021/12/12 01:51:34;;;;;;;26.17;8.05;;;6.40;99.90;;;;;;5053418;28;20068;-72
2021/12/12 01:54:07;;;;;;;38.28;9.77;;;6.40;99.90;;;;;;5053599;28;20061;-72
2021/12/12 01:56:42;;;;;;;28.42;9.32;;;6.40;99.90;;;;;;5053576;28;20116;-73
2021/12/12 01:59:12;;;;;;;35.15;8.07;;;6.50;99.90;;;;;;5052804;28;20032;-72
2021/12/12 02:01:56;;;;;;;31.75;8.23;;;6.50;99.90;;;;;;5052936;28;20033;-72
2021/12/12 02:04:26;;;;;;;36.25;9.88;;;6.60;99.90;;;;;;5054009;28;20072;-73
2021/12/12 02:06:54;;;;;;;25.13;8.32;;;6.60;99.90;;;;;;5052533;28;20032;-73
2021/12/12 02:09:22;;;;;;;30.98;9.15;;;6.50;99.90;;;;;;5066292;28;20028;-72
2021/12/12 02:11:51;;;;;;;29.23;8.65;;;6.50;99.90;;;;;;5073872;28;20021;-72
2021/12/12 02:14:21;;;;;;;37.92;8.88;;;6.50;99.90;;;;;;5073719;28;20040;-73
2021/12/12 02:17:01;;;;;;;24.73;9.13;;;6.50;99.90;;;;;;5072413;28;20374;-73
2021/12/12 02:19:44;;;;;;;24.40;9.15;;;6.60;99.90;;;;;;5071785;28;20075;-73
2021/12/12 02:36:00;;;;;;;24.95;8.25;;;6.60;99.90;;;;;;5073593;28;20383;-72
2021/12/12 02:38:32;;;;;;;22.52;9.82;;;6.50;99.90;;;;;;5072669;28;20059;-72
2021/12/12 02:41:02;;;;;;;31.67;9.70;;;6.60;99.90;;;;;;5073217;28;20496;-73
2021/12/12 02:43:31;;;;;;;32.65;9.85;;;6.60;99.90;;;;;;5071675;28;20551;-73
2021/12/12 02:45:58;;;;;;;33.53;9.73;;;6.60;99.90;;;;;;5073394;28;20085;-73
2021/12/12 02:48:29;;;;;;;32.30;10.40;;;6.60;99.90;;;;;;5071809;28;20132;-72
2021/12/12 02:50:59;;;;;;;28.13;10.38;;;6.60;99.90;;;;;;5073204;28;20540;-73
2021/12/12 02:53:31;;;;;;;27.58;9.38;;;6.70;99.90;;;;;;5071403;28;20017;-73
2021/12/12 02:56:01;;;;;;;27.80;9.60;;;6.60;99.90;;;;;;5072092;28;20044;-73
2021/12/12 02:58:27;;;;;;;22.60;8.43;;;6.70;99.90;;;;;;5073062;28;20016;-72
2021/12/12 03:01:26;;;;;;;29.33;11.30;;;6.70;99.90;;;;;;5072953;28;20109;-72
2021/12/12 03:03:53;;;;;;;26.70;10.80;;;6.70;99.90;;;;;;5071240;28;20032;-72
2021/12/12 03:06:27;;;;;;;28.45;11.13;;;6.70;99.90;;;;;;5072799;28;20028;-72
2021/12/12 03:09:00;;;;;;;29.08;11.35;;;6.70;99.90;;;;;;5071845;28;20033;-72
2021/12/12 03:11:27;;;;;;;26.02;10.88;;;6.80;99.90;;;;;;5072945;28;20036;-73
2021/12/12 03:13:56;;;;;;;32.47;11.85;;;6.80;99.90;;;;;;5072746;28;20138;-72
2021/12/12 03:16:22;;;;;;;25.35;11.65;;;6.90;99.90;;;;;;5073038;28;20029;-72
2021/12/12 03:18:48;;;;;;;29.25;11.07;;;6.80;99.90;;;;;;5063510;28;20416;-72
2021/12/12 03:21:19;;;;;;;22.42;10.88;;;6.80;99.90;;;;;;5061722;28;20528;-72
2021/12/12 03:23:55;;;;;;;27.30;12.13;;;6.80;99.90;;;;;;5071290;28;20032;-72
2021/12/12 03:26:21;;;;;;;32.63;11.73;;;6.80;99.90;;;;;;5072639;28;20043;-73
2021/12/12 03:28:51;;;;;;;28.63;12.27;;;6.80;99.90;;;;;;5072695;28;20400;-72
2021/12/12 03:31:29;;;;;;;25.02;11.73;;;6.80;99.90;;;;;;5071045;28;20097;-72
2021/12/12 03:33:55;;;;;;;23.38;10.73;;;6.80;99.90;;;;;;5072765;28;20032;-72
2021/12/12 03:36:23;;;;;;;25.30;11.85;;;6.70;99.90;;;;;;5072323;28;20529;-72
2021/12/12 03:38:53;;;;;;;23.17;11.48;;;6.80;99.90;;;;;;5072475;28;20068;-72
2021/12/12 03:41:25;;;;;;;23.38;12.30;;;6.90;99.90;;;;;;5072642;28;20115;-72
2021/12/12 03:43:53;;;;;;;24.20;12.47;;;6.90;99.90;;;;;;5072760;28;20063;-72
2021/12/12 03:46:20;;;;;;;26.75;12.85;;;6.90;99.90;;;;;;5072560;28;20029;-72
2021/12/12 03:48:46;;;;;;;19.70;11.27;;;6.90;99.90;;;;;;5072510;28;20086;-72
2021/12/12 03:51:15;;;;;;;26.30;12.30;;;6.90;99.90;;;;;;5070840;28;20039;-72
2021/12/12 03:53:42;;;;;;;19.00;11.73;;;6.90;99.90;;;;;;5071006;28;20039;-72
2021/12/12 03:56:10;;;;;;;24.70;12.20;;;6.90;99.90;;;;;;5072151;28;20033;-72
2021/12/12 03:58:36;;;;;;;26.85;13.77;;;7.00;99.90;;;;;;5071770;28;20033;-72
2021/12/12 04:01:10;;;;;;;23.50;13.05;;;7.00;99.90;;;;;;5065486;28;20111;-72
2021/12/12 04:03:38;;;;;;;27.35;14.38;;;7.10;99.90;;;;;;5052455;28;20033;-72
2021/12/12 04:06:08;;;;;;;27.13;13.93;;;7.10;99.90;;;;;;5052084;28;20039;-72
2021/12/12 04:08:38;;;;;;;18.73;13.07;;;7.10;99.90;;;;;;5058824;28;20025;-73
2021/12/12 04:11:12;;;;;;;28.90;13.02;;;7.10;99.90;;;;;;5071161;28;20029;-72
2021/12/12 04:13:43;;;;;;;22.73;14.40;;;7.10;99.90;;;;;;5060408;28;20029;-73
2021/12/12 04:16:09;;;;;;;21.48;13.93;;;7.20;99.90;;;;;;5052252;28;20040;-72
2021/12/12 04:18:35;;;;;;;23.02;14.30;;;7.20;99.90;;;;;;5051956;28;20021;-72
2021/12/12 04:21:02;;;;;;;21.02;13.23;;;7.20;99.90;;;;;;5051799;28;20080;-72
2021/12/12 04:23:28;;;;;;;20.70;14.00;;;7.20;99.90;;;;;;5034068;28;20047;-72
2021/12/12 04:26:06;;;;;;;17.95;13.18;;;7.20;99.90;;;;;;5059913;28;20435;-72
2021/12/12 04:28:32;;;;;;;26.77;15.35;;;7.20;99.90;;;;;;5072288;28;20120;-72
2021/12/12 04:30:58;;;;;;;28.40;15.63;;;7.20;99.90;;;;;;5071698;28;20116;-73
2021/12/12 04:33:25;;;;;;;21.52;13.30;;;7.30;99.90;;;;;;5072394;28;20020;-72
2021/12/12 04:35:51;;;;;;;24.65;17.25;;;7.20;99.90;;;;;;5058748;28;20116;-72
2021/12/12 04:38:16;;;;;;;24.35;16.55;;;7.20;99.90;;;;;;5066862;28;20044;-72
2021/12/12 04:40:42;;;;;;;26.55;16.95;;;7.20;99.90;;;;;;5057412;28;20037;-73
2021/12/12 04:43:08;;;;;;;21.90;15.63;;;7.30;99.90;;;;;;5052157;28;20115;-72
2021/12/12 04:46:02;;;;;;;28.67;16.75;;;7.30;99.90;;;;;;5054895;28;20067;-73
2021/12/12 04:51:47;;;;;;;27.65;16.75;;;7.40;99.90;;;;;;5055393;28;20041;-73
2021/12/12 04:54:25;;;;;;;22.88;15.13;;;7.40;99.90;;;;;;5054241;28;20490;-72
2021/12/12 04:57:07;;;;;;;23.20;16.25;;;7.40;99.90;;;;;;5055224;28;20112;-73
2021/12/12 04:59:32;;;;;;;;;;;7.50;99.90;;;;;;5055303;28;20082;-72
2021/12/12 05:02:10;;;;;;;26.55;16.00;;;7.40;99.90;;;;;;5054942;28;19921;-72
2021/12/12 05:04:55;;;;;;;20.90;16.35;;;7.50;99.90;;;;;;5055038;28;20304;-73
2021/12/12 05:07:30;;;;;;;25.30;17.45;;;7.50;99.90;;;;;;5054910;28;20474;-72
2021/12/12 05:10:07;;;;;;;18.30;13.30;;;7.60;99.90;;;;;;5072955;28;20044;-72
2021/12/12 05:12:41;;;;;;;24.45;15.95;;;7.60;99.90;;;;;;5074899;28;20020;-72
2021/12/12 05:15:38;;;;;;;28.52;16.80;;;7.50;99.90;;;;;;5075088;28;20465;-73
2021/12/12 05:18:10;;;;;;;33.75;17.08;;;7.60;99.90;;;;;;5074384;28;20056;-73
2021/12/12 05:20:41;;;;;;;25.98;16.88;;;7.60;99.90;;;;;;5074657;28;20105;-71
2021/12/12 05:23:11;;;;;;;22.60;15.60;;;7.60;99.90;;;;;;5074368;28;20040;-71
2021/12/12 05:26:01;;;;;;;25.98;16.50;;;7.60;99.90;;;;;;5073210;28;20396;-71
2021/12/12 05:28:31;;;;;;;22.95;15.52;;;7.50;99.90;;;;;;5074745;28;20033;-71
2021/12/12 05:31:00;;;;;;;22.45;16.33;;;7.50;99.90;;;;;;5074720;28;20533;-71
2021/12/12 05:33:27;;;;;;;27.05;16.50;;;7.50;99.90;;;;;;5072988;28;20024;-71
2021/12/12 05:35:53;;;;;;;26.73;17.73;;;7.50;99.90;;;;;;5074731;28;20040;-74
2021/12/12 05:38:22;;;;;;;23.02;16.08;;;7.50;99.90;;;;;;5056969;28;20501;-73
2021/12/12 05:40:49;;;;;;;26.30;16.80;;;7.60;99.90;;;;;;5073385;28;20035;-71
2021/12/12 05:43:16;;;;;;;25.30;16.27;;;7.50;99.90;;;;;;5074569;28;20037;-71
2021/12/12 05:45:44;;;;;;;23.70;16.88;;;7.60;99.90;;;;;;5074375;28;20032;-74
2021/12/12 05:48:10;;;;;;;24.27;16.23;;;7.60;99.90;;;;;;5074113;28;20099;-71
2021/12/12 05:50:37;;;;;;;23.13;16.58;;;7.60;99.90;;;;;;5074475;28;20056;-73
2021/12/12 05:53:03;;;;;;;29.33;16.52;;;7.60;99.90;;;;;;5073816;28;20055;-71
2021/12/12 05:55:32;;;;;;;29.92;18.15;;;7.60;99.90;;;;;;5074235;28;20113;-71
2021/12/12 05:58:00;;;;;;;30.10;17.48;;;7.70;99.90;;;;;;5072696;28;20078;-71
2021/12/12 06:00:31;;;;;;;25.17;16.88;;;7.70;99.90;;;;;;5074021;28;20511;-74
2021/12/12 06:02:58;;;;;;;25.90;15.52;;;7.70;99.90;;;;;;5073408;28;20027;-70
2021/12/12 06:05:24;;;;;;;23.40;15.85;;;7.70;99.90;;;;;;5074024;28;20037;-73
2021/12/12 06:07:54;;;;;;;22.40;15.00;;;7.70;99.90;;;;;;5071608;28;20465;-71
2021/12/12 06:10:20;;;;;;;30.52;15.50;;;7.70;99.90;;;;;;5052774;28;20481;-71
2021/12/12 06:12:47;;;;;;;27.83;15.88;;;7.70;99.90;;;;;;5053748;28;20271;-71
2021/12/12 06:15:17;;;;;;;21.50;14.07;;;7.70;99.90;;;;;;5054032;28;20036;-71
2021/12/12 06:17:44;;;;;;;24.50;14.75;;;7.70;99.90;;;;;;5053477;28;20055;-73
2021/12/12 06:20:12;;;;;;;27.60;16.30;;;7.70;99.90;;;;;;5053689;28;20120;-71
2021/12/12 06:22:38;;;;;;;30.00;15.85;;;7.70;99.90;;;;;;5058323;28;20028;-72
2021/12/12 06:25:05;;;;;;;26.50;15.30;;;7.70;99.90;;;;;;5054519;28;20480;-72
2021/12/12 06:27:32;;;;;;;28.02;15.20;;;7.70;99.90;;;;;;5071211;28;20497;-73
2021/12/12 06:29:58;;;;;;;27.23;15.60;;;7.70;99.90;;;;;;5073351;28;20028;-72
2021/12/12 06:32:24;;;;;;;24.67;14.23;;;7.70;99.90;;;;;;5072531;28;20538;-71
2021/12/12 06:34:51;;;;;;;28.35;14.48;;;7.70;99.90;;;;;;5071787;28;20029;-72
2021/12/12 06:37:17;;;;;;;31.05;16.10;;;7.70;99.90;;;;;;5072828;28;20028;-72
2021/12/12 06:39:44;;;;;;;30.52;16.58;;;7.70;99.90;;;;;;5072836;28;20032;-72
2021/12/12 06:42:13;;;;;;;35.97;16.40;;;7.80;99.90;;;;;;5071626;28;20378;-72
2021/12/12 06:44:41;;;;;;;28.70;15.77;;;7.70;99.90;;;;;;5072520;28;20082;-72
2021/12/12 06:47:09;;;;;;;31.60;15.25;;;7.70;99.90;;;;;;5073026;28;20029;-72
2021/12/12 06:49:37;;;;;;;38.40;18.02;;;7.80;99.90;;;;;;5072777;28;20056;-72
2021/12/12 06:52:06;;;;;;;33.22;16.23;;;7.80;99.90;;;;;;5072014;28;20024;-72
2021/12/12 06:54:32;;;;;;;33.65;17.92;;;7.80;99.90;;;;;;5070808;28;20024;-72
2021/12/12 06:57:02;;;;;;;36.47;19.02;;;7.80;99.90;;;;;;5068869;28;20078;-73
2021/12/12 06:59:30;;;;;;;37.83;18.83;;;7.90;99.90;;;;;;5071180;28;20457;-72
2021/12/12 07:01:56;;;;;;;47.40;19.30;;;7.80;99.90;;;;;;5070880;28;20044;-72
2021/12/12 07:04:23;;;;;;;48.15;21.13;;;7.80;99.90;;;;;;5072381;28;20025;-72
2021/12/12 07:06:54;;;;;;;47.08;19.13;;;7.90;99.90;;;;;;5072007;28;20035;-72
2021/12/12 07:09:21;;;;;;;41.42;21.05;;;7.80;99.90;;;;;;5072361;28;20377;-72
2021/12/12 07:11:47;;;;;;;42.38;19.55;;;7.90;99.90;;;;;;5072296;28;20504;-72
2021/12/12 07:14:15;;;;;;;45.72;21.15;;;7.90;99.90;;;;;;5072048;28;20397;-72
2021/12/12 07:16:42;;;;;;;37.53;19.83;;;7.90;99.90;;;;;;5072469;28;20047;-72
2021/12/12 07:19:08;;;;;;;40.97;20.02;;;7.90;99.90;;;;;;5072054;28;20047;-72
2021/12/12 07:21:35;;;;;;;45.00;21.52;;;7.90;99.90;;;;;;5072440;28;20034;-72
2021/12/12 07:24:03;;;;;;;42.70;20.80;;;7.90;99.90;;;;;;5071237;28;20157;-72
2021/12/12 07:26:29;;;;;;;45.95;18.63;;;7.90;99.90;;;;;;5072252;28;20121;-72
2021/12/12 07:28:58;;;;;;;41.00;19.70;;;8.00;99.90;;;;;;5071962;28;20052;-72
2021/12/12 07:31:28;;;;;;;37.70;18.50;;;8.00;99.90;;;;;;5071827;28;20032;-71
2021/12/12 07:33:57;;;;;;;39.35;18.05;;;8.00;99.90;;;;;;5053807;28;20029;-72
2021/12/12 07:36:24;;;;;;;41.42;19.23;;;8.00;99.90;;;;;;5071984;28;20032;-72
2021/12/12 07:38:56;;;;;;;37.13;19.95;;;8.00;99.90;;;;;;5070869;28;20512;-71
2021/12/12 07:41:25;;;;;;;45.13;19.02;;;8.00;99.90;;;;;;5070725;28;20036;-72
2021/12/12 07:43:51;;;;;;;37.10;19.30;;;8.00;99.90;;;;;;5071409;28;20359;-71
2021/12/12 07:46:18;;;;;;;33.72;17.50;;;8.00;99.90;;;;;;5052560;28;20033;-71
2021/12/12 07:48:45;;;;;;;45.28;18.52;;;8.00;99.90;;;;;;5050837;28;20478;-71
2021/12/12 07:51:11;;;;;;;44.33;18.60;;;8.00;99.90;;;;;;5050969;28;20898;-71
2021/12/12 07:53:37;;;;;;;34.38;14.57;;;8.10;99.90;;;;;;5067254;28;20032;-72
2021/12/12 07:56:03;;;;;;;46.78;19.15;;;8.10;99.90;;;;;;5068921;28;20120;-71
2021/12/12 07:58:29;;;;;;;44.25;20.27;;;8.10;99.90;;;;;;5049294;28;20075;-71
2021/12/12 08:00:57;;;;;;;44.78;18.42;;;8.10;99.90;;;;;;5050820;28;20043;-71
2021/12/12 08:03:27;;;;;;;30.48;14.40;;;8.10;99.90;;;;;;5054702;28;20055;-71
2021/12/12 08:05:53;;;;;;;53.58;21.63;;;8.20;99.90;;;;;;5054605;28;20380;-73
2021/12/12 08:08:19;;;;;;;39.15;20.27;;;8.10;99.90;;;;;;5051765;28;20507;-73
2021/12/12 08:10:46;;;;;;;48.00;22.02;;;8.20;99.90;;;;;;5051141;28;20054;-73
2021/12/12 08:13:14;;;;;;;46.80;22.08;;;8.20;99.90;;;;;;5051123;28;20434;-71
2021/12/12 08:15:41;;;;;;;53.75;21.20;;;8.30;99.90;;;;;;5051254;28;20064;-73
2021/12/12 08:18:10;;;;;;;55.35;23.17;;;8.20;99.90;;;;;;5051454;28;20108;-73
2021/12/12 08:20:36;;;;;;;51.58;21.63;;;8.30;99.90;;;;;;5072249;28;20465;-71
2021/12/12 08:23:04;;;;;;;52.20;22.42;;;8.30;99.90;;;;;;5057173;28;20024;-73
2021/12/12 08:25:30;;;;;;;54.72;21.38;;;8.20;99.90;;;;;;5075730;28;20031;-74
2021/12/12 08:28:00;;;;;;;51.90;21.15;;;8.30;99.90;;;;;;5066877;28;20108;-72
2021/12/12 08:30:28;;;;;;;55.72;21.35;;;8.30;99.90;;;;;;5065254;28;20473;-73
2021/12/12 08:32:55;;;;;;;49.10;22.42;;;8.30;99.90;;;;;;5066592;28;20020;-73
2021/12/12 08:35:23;;;;;;;58.45;24.10;;;8.40;99.90;;;;;;5066343;28;20036;-73
2021/12/12 08:37:49;;;;;;;59.22;24.20;;;8.30;99.90;;;;;;5064269;28;20025;-73
2021/12/12 08:40:26;;;;;;;55.10;23.85;;;8.30;99.90;;;;;;5064278;28;20029;-73
2021/12/12 08:42:54;;;;;;;63.65;25.60;;;8.40;99.90;;;;;;5065188;28;20032;-73
2021/12/12 08:45:24;;;;;;;54.05;23.90;;;8.50;99.90;;;;;;5067966;28;20027;-73
2021/12/12 08:47:50;;;;;;;56.40;24.75;;;8.50;99.90;;;;;;5089478;28;20036;-73
2021/12/12 08:50:20;;;;;;;57.08;24.00;;;8.50;99.90;;;;;;5083963;28;20032;-73
2021/12/12 08:52:48;;;;;;;63.65;26.50;;;8.50;99.90;;;;;;5073941;28;20240;-73
2021/12/12 08:55:19;;;;;;;57.72;25.25;;;8.60;99.90;;;;;;5087592;28;20385;-73
2021/12/12 08:57:59;;;;;;;53.22;23.27;;;8.50;99.90;;;;;;5086607;28;20032;-73
2021/12/12 09:00:29;;;;;;;59.58;22.85;;;8.50;99.90;;;;;;5083736;28;20567;-73
2021/12/12 09:02:55;;;;;;;48.70;22.38;;;8.50;99.90;;;;;;5074237;28;20043;-73
2021/12/12 09:05:26;;;;;;;49.80;20.80;;;8.60;99.90;;;;;;5059494;28;20469;-73
2021/12/12 09:07:59;;;;;;;58.92;23.60;;;8.60;99.90;;;;;;5061975;28;20037;-73
2021/12/12 09:10:40;;;;;;;56.53;23.55;;;8.50;99.90;;;;;;5060568;28;20039;-73
2021/12/12 09:13:30;;;;;;;52.47;23.13;;;8.60;99.90;;;;;;5058549;28;20025;-73
2021/12/12 09:16:09;;;;;;;53.50;22.50;;;8.60;99.90;;;;;;5055437;28;20027;-73
2021/12/12 09:18:52;;;;;;;45.92;21.02;;;8.60;99.90;;;;;;5064960;28;20024;-73
2021/12/12 09:21:51;;;;;;;48.38;22.35;;;8.70;99.90;;;;;;5058522;28;20037;-74
2021/12/12 09:24:43;;;;;;;42.80;21.17;;;8.70;99.90;;;;;;5054481;28;20415;-73
2021/12/12 09:27:13;;;;;;;51.42;20.90;;;8.70;99.90;;;;;;5057100;28;20044;-73
2021/12/12 09:29:45;;;;;;;51.63;21.92;;;8.70;99.90;;;;;;5054104;28;20466;-73
2021/12/12 09:32:13;;;;;;;;;;;8.70;99.90;;;;;;5054719;28;20025;-73
2021/12/12 09:34:44;;;;;;;43.50;22.20;;;8.70;99.90;;;;;;5054047;28;19915;-73
2021/12/12 09:37:14;;;;;;;44.20;20.42;;;8.70;99.90;;;;;;5056194;28;20028;-74
2021/12/12 09:39:49;;;;;;;50.92;20.58;;;8.70;99.90;;;;;;5060278;28;20024;-73
2021/12/12 09:42:39;;;;;;;44.22;21.73;;;8.70;99.90;;;;;;5082423;28;20072;-73
2021/12/12 09:45:36;;;;;;;59.15;27.02;;;8.80;99.90;;;;;;5076585;28;20077;-72
2021/12/12 09:51:16;;;;;;;45.45;21.85;;;8.70;99.90;;;;;;5063748;28;20048;-73
2021/12/12 09:54:02;;;;;;;49.22;20.40;;;8.70;99.90;;;;;;5062000;28;20036;-73
2021/12/12 09:56:54;;;;;;;46.60;23.85;;;8.70;99.90;;;;;;5062190;28;20029;-73
2021/12/12 09:59:32;;;;;;;39.25;23.05;;;8.90;99.90;;;;;;5063724;28;20214;-73
2021/12/12 10:02:16;;;;;;;38.72;18.50;;;8.80;99.90;;;;;;5063425;28;20029;-73
2021/12/12 10:04:42;;;;;;;40.15;20.95;;;8.90;99.90;;;;;;5060726;28;20040;-73
2021/12/12 10:07:23;;;;;;;39.35;21.38;;;8.80;99.90;;;;;;5053159;28;20017;-73
2021/12/12 10:09:56;;;;;;;42.47;21.10;;;8.90;99.90;;;;;;5053684;28;20036;-73
2021/12/12 10:12:25;;;;;;;34.92;16.60;;;9.00;99.90;;;;;;5034974;28;20040;-74
2021/12/12 10:14:59;;;;;;;45.50;21.77;;;9.00;99.90;;;;;;5053550;28;20036;-73
2021/12/12 10:17:31;;;;;;;38.90;20.05;;;9.00;99.90;;;;;;5053839;28;20038;-74
2021/12/12 10:20:07;;;;;;;43.20;17.98;;;9.10;99.90;;;;;;5053163;28;20037;-74
2021/12/12 10:23:14;;;;;;;36.75;19.05;;;9.00;99.90;;;;;;5051815;28;20413;-73
2021/12/12 10:25:46;;;;;;;36.80;12.95;;;9.20;99.90;;;;;;5060499;28;20024;-73
2021/12/12 10:28:21;;;;;;;37.63;20.17;;;9.00;99.90;;;;;;5073012;28;20735;-74
2021/12/12 10:31:00;;;;;;;35.50;20.30;;;9.00;99.90;;;;;;5073337;28;20036;-73
2021/12/12 10:33:32;;;;;;;41.10;20.25;;;9.10;99.90;;;;;;5071214;28;20064;-73
2021/12/12 10:36:05;;;;;;;46.80;20.20;;;9.10;99.90;;;;;;5072784;28;20473;-73
2021/12/12 10:39:02;;;;;;;50.03;25.25;;;9.10;99.90;;;;;;5069343;28;20022;-73
2021/12/12 10:41:40;;;;;;;38.80;16.35;;;9.00;99.90;;;;;;5065992;28;20393;-73
2021/12/12 10:44:54;;;;;;;39.83;21.98;;;9.00;99.90;;;;;;5073234;28;20028;-74
2021/12/12 10:47:49;;;;;;;37.97;22.33;;;9.00;99.90;;;;;;5071290;28;20024;-73
2021/12/12 10:50:30;;;;;;;46.92;23.85;;;9.00;99.90;;;;;;5070769;28;20039;-74
2021/12/12 10:53:08;;;;;;;44.53;23.27;;;9.10;99.90;;;;;;5072682;28;20056;-73
2021/12/12 10:55:43;;;;;;;50.67;26.35;;;9.10;99.90;;;;;;5073268;28;20028;-74
2021/12/12 10:58:35;;;;;;;50.10;24.30;;;9.20;99.90;;;;;;5073070;28;20036;-73
2021/12/12 11:01:10;;;;;;;47.40;22.25;;;9.20;99.90;;;;;;5072462;28;20079;-72
2021/12/12 11:03:42;;;;;;;42.03;21.83;;;9.10;99.90;;;;;;5056075;28;20025;-73
2021/12/12 11:06:16;;;;;;;45.78;26.05;;;9.10;99.90;;;;;;5070434;28;20039;-72
2021/12/12 11:09:12;;;;;;;43.38;23.27;;;9.20;99.90;;;;;;5054084;28;20470;-72
2021/12/12 11:11:45;;;;;;;58.92;28.80;;;9.20;99.90;;;;;;5054565;28;20421;-73
2021/12/12 11:14:29;;;;;;;57.25;28.55;;;9.30;99.90;;;;;;5070705;28;20036;-72
2021/12/12 11:17:22;;;;;;;55.50;27.30;;;9.30;99.90;;;;;;5065140;28;20040;-72
2021/12/12 11:20:04;;;;;;;61.08;30.25;;;9.30;99.90;;;;;;5053080;28;20048;-73
2021/12/12 11:22:46;;;;;;;67.18;31.58;;;9.30;99.90;;;;;;5051491;28;20043;-73
2021/12/12 11:25:22;;;;;;;59.53;31.33;;;9.30;99.90;;;;;;5068076;28;20071;-73
2021/12/12 11:27:57;;;;;;;57.17;29.50;;;9.40;99.90;;;;;;5052322;28;20756;-73
2021/12/12 11:30:35;;;;;;;66.57;32.45;;;9.40;99.90;;;;;;5052430;28;20072;-73
2021/12/12 11:33:09;;;;;;;56.83;29.90;;;9.50;99.90;;;;;;5052565;28;20029;-74
2021/12/12 11:35:38;;;;;;;58.83;31.58;;;9.50;99.90;;;;;;5051823;28;20032;-73
2021/12/12 11:38:16;;;;;;;51.25;28.60;;;9.60;99.90;;;;;;5058667;28;20546;-73
2021/12/12 11:40:47;;;;;;;59.25;29.60;;;9.60;99.90;;;;;;5072252;28;20028;-73
2021/12/12 11:43:32;;;;;;;56.47;30.08;;;9.80;99.90;;;;;;5072368;28;20032;-74
2021/12/12 11:46:03;;;;;;;57.22;29.98;;;9.80;99.90;;;;;;5066378;28;20029;-73
2021/12/12 11:48:33;;;;;;;58.07;28.57;;;9.90;99.90;;;;;;5050770;28;20029;-73
2021/12/12 11:51:15;;;;;;;57.30;30.23;;;9.80;99.90;;;;;;5049660;28;20311;-73
2021/12/12 11:53:48;;;;;;;58.88;30.63;;;9.90;99.90;;;;;;5053373;28;20017;-73
2021/12/12 11:56:45;;;;;;;56.13;30.05;;;10.00;99.90;;;;;;5055934;28;20476;-73
2021/12/12 11:59:32;;;;;;;59.13;32.28;;;10.00;99.90;;;;;;5072672;28;20457;-73
2021/12/12 12:02:12;;;;;;;52.47;30.52;;;10.00;99.90;;;;;;5061287;28;20052;-73
2021/12/12 12:04:57;;;;;;;60.70;31.77;;;10.20;99.90;;;;;;5056065;28;20028;-73
2021/12/12 12:07:59;;;;;;;58.05;33.20;;;10.20;99.90;;;;;;5056221;28;20051;-73
2021/12/12 12:10:51;;;;;;;47.42;29.65;;;10.30;99.90;;;;;;5056213;28;20385;-73
2021/12/12 12:13:29;;;;;;;59.43;32.23;;;10.30;99.90;;;;;;5055972;28;20033;-73
2021/12/12 12:15:59;;;;;;;50.08;29.13;;;10.30;99.90;;;;;;5056201;28;20033;-73
2021/12/12 12:18:34;;;;;;;48.83;29.27;;;10.30;99.90;;;;;;5055684;28;20381;-73
2021/12/12 12:21:08;;;;;;;50.03;29.15;;;10.40;99.90;;;;;;5055775;28;20041;-73
2021/12/12 12:27:04;;;;;;;51.00;28.98;;;10.50;99.90;;;;;;5069480;28;20056;-73
2021/12/12 12:29:33;;;;;;;47.33;27.27;;;10.60;99.90;;;;;;5076006;28;20036;-73
2021/12/12 12:32:07;;;;;;;50.10;30.40;;;10.60;99.90;;;;;;5075653;28;20012;-73
2021/12/12 12:35:10;;;;;;;50.38;30.85;;;10.50;99.90;;;;;;5074445;28;20489;-73
2021/12/12 12:38:14;;;;;;;40.90;24.60;;;10.60;99.90;;;;;;5066819;28;20028;-73
2021/12/12 12:41:17;;;;;;;39.03;22.73;;;10.50;99.90;;;;;;5054916;28;20036;-73
2021/12/12 12:44:08;;;;;;;43.13;24.85;;;10.50;99.90;;;;;;5054374;28;20032;-73
2021/12/12 12:47:08;;;;;;;46.20;27.13;;;10.60;99.90;;;;;;5055554;28;20458;-73
2021/12/12 12:50:07;;;;;;;42.33;25.52;;;10.60;99.90;;;;;;5060856;28;20112;-73
2021/12/12 12:52:54;;;;;;;42.42;24.00;;;10.60;99.90;;;;;;5074036;28;20036;-73
2021/12/12 12:55:31;;;;;;;39.75;24.67;;;10.60;99.90;;;;;;5075391;28;20023;-73
2021/12/12 12:58:23;;;;;;;38.63;25.80;;;10.60;99.90;;;;;;5075403;28;20024;-73
2021/12/12 13:00:51;;;;;;;34.25;22.90;;;10.70;99.90;;;;;;5069089;28;20043;-73
2021/12/12 13:03:37;;;;;;;37.88;24.05;;;10.60;99.90;;;;;;5054836;28;20031;-73
2021/12/12 13:06:04;;;;;;;45.08;23.98;;;10.70;99.90;;;;;;5054504;28;20033;-73
2021/12/12 13:09:00;;;;;;;44.38;26.65;;;10.70;99.90;;;;;;5060931;28;20195;-73
2021/12/12 13:12:00;;;;;;;29.92;21.67;;;10.70;99.90;;;;;;5073547;28;20213;-73
2021/12/12 13:14:51;;;;;;;34.80;23.60;;;10.80;99.90;;;;;;5075201;28;20044;-73
2021/12/12 13:17:17;;;;;;;37.58;23.27;;;10.80;99.90;;;;;;5074399;28;20033;-72
2021/12/12 13:20:04;;;;;;;37.85;23.70;;;10.80;99.90;;;;;;5056841;28;20480;-73
2021/12/12 13:22:52;;;;;;;37.42;24.45;;;10.80;99.90;;;;;;5055351;28;20083;-73
2021/12/12 13:25:26;;;;;;;43.22;22.50;;;10.90;99.90;;;;;;5058499;28;20020;-73
2021/12/12 13:28:19;;;;;;;39.10;22.10;;;11.00;99.90;;;;;;5074754;28;20036;-73
2021/12/12 13:31:16;;;;;;;32.47;20.45;;;11.00;99.90;;;;;;5061990;28;20112;-73
2021/12/12 13:33:54;;;;;;;41.63;23.48;;;11.00;99.90;;;;;;5053427;28;20040;-73